METAR AND TAF INFORMATION
METAR FOR ENVA
ADDS - METARS form results

(0225 UTC 19 October 2019)
Data provider http://aviationweather.gov/metar/data/
 
METAR text: ENVA 190220Z 12006KT 9999 OVC044 03/02 Q1004 RMK WIND 670FT 16005KT
Conditions at: ENVA (TRONDHEIM/VAERNE, NO) observed 0220 UTC 19 October 2019
Temperature: 3.0°C (37°F)
Dewpoint: 2.0°C (36°F) [RH = 93%]
Pressure (altimeter): 29.65 inches Hg (1004.0 mb)
Winds: from the ESE (120 degrees) at 7 MPH (6 knots; 3.1 m/s)
Visibility: 6 or more miles (10+ km)
Ceiling: 4400 feet AGL
Clouds: overcast cloud deck at 4400 feet AGL
Weather: no significant weather observed at this time

METAR text: ENVA 190150Z 13007KT 9999 FEW002 OVC044 03/02 Q1004 RMK WIND 670FT 16006KT
Conditions at: ENVA (TRONDHEIM/VAERNE, NO) observed 0150 UTC 19 October 2019
Temperature: 3.0°C (37°F)
Dewpoint: 2.0°C (36°F) [RH = 93%]
Pressure (altimeter): 29.65 inches Hg (1004.0 mb)
Winds: from the SE (130 degrees) at 8 MPH (7 knots; 3.6 m/s)
Visibility: 6 or more miles (10+ km)
Ceiling: 4400 feet AGL
Clouds: few clouds at 200 feet AGL
overcast cloud deck at 4400 feet AGL
Weather: no significant weather observed at this time

Forecast for: ENVA (TRONDHEIM/VAERNE, NO)
Text: TAF ENVA 1900/1924 11007KT 9999 FEW020 BKN040
Forecast period: 0000 UTC 19 October 2019 to 0000 UTC 20 October 2019
Forecast type: FROM: standard forecast or significant change
Winds: from the ESE (110 degrees) at 8 MPH (7 knots; 3.6 m/s)
Visibility: 6 or more miles 10+ km)
Ceiling: 4000 feet AGL
Clouds: few clouds at 2000 feet AGL
broken clouds at 4000 feet AGL
Weather: no significant weather forecast for this period

 AIRPORT MAP

 RUNWAY INFORMATION
Runway 09 Runway length 9052 ft Runway width 148 ft
Runway elevation 17 ft Runway displaced threshold 830 ft Runway heading 90
Runway 27 Runway length 9052 ft Runway width 148 ft
Runway elevation 56 ft Runway displaced threshold 459 ft Runway heading 270
Runway 13 Runway length 4771 ft Runway width 118 ft
Runway elevation 30 ft Runway displaced threshold 412 ft Runway heading 134
Runway 31 Runway length 4771 ft Runway width 118 ft
Runway elevation 54 ft Runway displaced threshold 962 ft Runway heading 314
Runway 14 Runway length 3117 ft Runway width 118 ft
Runway elevation 30 ft Runway displaced threshold 0 ft Runway heading 134
Runway 32 Runway length 3117 ft Runway width 118 ft
Runway elevation 54 ft Runway displaced threshold 0 ft Runway heading 314

 AIRPORT FREQUENCIES
Type APP Name APP Frequency 118.6 MHZ
Type ATIS Name ATIS Frequency 127.55 MHZ
Type GND Name Værnes gro Frequency 121.6 MHZ
Type TWR Name TWR Frequency 119.4 MHZ

 AIRPORT NEAR NAVIGATION AIDS
Type NDB Name Flornes Frequency 380 KHZ
Type NDB Name Grakallen Frequency 358 KHZ
Type VOR-DME Name Trondheim Frequency 112500 KHZ
Type TACAN Name Vaernes Frequency 109600 KHZ



Powered by Virtual Airlines Manager [v2.6.2]